createdAt,value
2017-06-02T00:00:34.239Z,91.86
2017-06-02T00:01:35.670Z,91.09
2017-06-02T00:02:37.095Z,91.23
2017-06-02T00:03:38.523Z,91.66
2017-06-02T00:04:39.950Z,92.96
2017-06-02T00:05:41.373Z,92.58
2017-06-02T00:06:42.803Z,93.06
2017-06-02T00:07:44.234Z,91.76
2017-06-02T00:08:45.663Z,91.57
2017-06-02T00:09:47.102Z,91.57
2017-06-02T00:10:48.538Z,92.24
2017-06-02T00:11:49.963Z,91.28
2017-06-02T00:12:51.420Z,92.05
2017-06-02T00:13:52.850Z,92.68
2017-06-02T00:14:54.274Z,93.25
2017-06-02T00:15:55.704Z,92.77
2017-06-02T00:16:58.983Z,93.10
2017-06-02T00:18:00.414Z,92.72
2017-06-02T00:19:01.836Z,93.30
2017-06-02T00:20:03.278Z,93.59
2017-06-02T00:21:04.690Z,93.30
2017-06-02T00:22:06.102Z,93.39
2017-06-02T00:23:07.539Z,93.30
2017-06-02T00:24:08.966Z,92.72
2017-06-02T00:25:10.394Z,93.49
2017-06-02T00:26:11.825Z,93.77
2017-06-02T00:27:13.238Z,93.30
2017-06-02T00:28:14.662Z,92.82
2017-06-02T00:29:16.087Z,92.63
2017-06-02T00:30:17.513Z,92.72
2017-06-02T00:31:18.942Z,93.49
2017-06-02T00:32:20.365Z,93.87
2017-06-02T00:33:21.797Z,94.02
2017-06-02T00:34:23.228Z,94.98
2017-06-02T00:35:24.648Z,94.59
2017-06-02T00:36:26.077Z,94.16
2017-06-02T00:37:27.502Z,94.12
2017-06-02T00:38:28.931Z,93.97
2017-06-02T00:39:30.363Z,93.10
2017-06-02T00:40:32.662Z,93.77
2017-06-02T00:41:34.063Z,94.16
2017-06-02T00:42:35.490Z,93.97
2017-06-02T00:43:36.918Z,94.79
2017-06-02T00:44:38.347Z,94.79
2017-06-02T00:45:39.779Z,94.98
2017-06-02T00:46:42.010Z,95.75
2017-06-02T00:47:43.476Z,95.75
2017-06-02T00:48:44.914Z,95.84
2017-06-02T00:49:46.482Z,95.94
2017-06-02T00:50:47.785Z,95.75
2017-06-02T00:51:50.193Z,95.65
2017-06-02T00:52:51.632Z,96.18
2017-06-02T00:53:53.059Z,96.08
2017-06-02T00:54:54.480Z,97.85
2017-06-02T00:55:55.900Z,98.72
2017-06-02T00:56:57.345Z,99.87
2017-06-02T00:57:58.775Z,99.58
2017-06-02T00:59:00.208Z,98.91
2017-06-02T01:00:01.632Z,97.71
2017-06-02T01:01:03.061Z,96.56
2017-06-02T01:02:04.483Z,96.70
2017-06-02T01:03:05.902Z,96.66
2017-06-02T01:04:07.324Z,95.98
2017-06-02T01:05:08.748Z,95.65
2017-06-02T01:06:10.174Z,95.17
2017-06-02T01:07:11.600Z,95.55
2017-06-02T01:08:13.025Z,95.55
2017-06-02T01:09:14.448Z,96.27
2017-06-02T01:10:15.875Z,96.56
2017-06-02T01:11:17.295Z,97.52
2017-06-02T01:12:18.725Z,97.52
2017-06-02T01:13:20.154Z,98.62
2017-06-02T01:14:21.579Z,98.67
2017-06-02T01:15:23.023Z,97.71
2017-06-02T01:16:24.446Z,97.61
2017-06-02T01:17:25.871Z,98.00
2017-06-02T01:18:27.293Z,99.29
2017-06-02T01:19:28.717Z,98.57
2017-06-02T01:20:30.145Z,98.28
2017-06-02T01:21:31.564Z,97.61
2017-06-02T01:22:32.992Z,97.23
2017-06-02T01:23:34.415Z,97.47
2017-06-02T01:24:35.833Z,96.61
2017-06-02T01:25:37.803Z,97.19
2017-06-02T01:26:39.299Z,97.14
2017-06-02T01:27:40.723Z,97.23
2017-06-02T01:28:42.143Z,98.57
2017-06-02T01:29:43.570Z,98.67
2017-06-02T01:30:45.043Z,98.77
2017-06-02T01:31:46.475Z,98.67
2017-06-02T01:32:47.902Z,97.71
2017-06-02T01:33:49.427Z,97.90
2017-06-02T01:34:50.865Z,97.42
2017-06-02T01:35:52.286Z,97.86
2017-06-02T01:36:55.769Z,97.19
2017-06-02T01:37:57.196Z,97.56
2017-06-02T01:38:58.616Z,97.66
2017-06-02T01:40:00.048Z,97.76
2017-06-02T01:41:01.478Z,98.57
2017-06-02T01:42:02.899Z,99.10
2017-06-02T01:43:04.323Z,98.43
2017-06-02T01:44:05.752Z,97.28
2017-06-02T01:45:07.181Z,97.76
2017-06-02T01:46:08.603Z,96.22
2017-06-02T01:47:10.027Z,97.76
2017-06-02T01:48:11.452Z,97.95
2017-06-02T01:49:12.878Z,97.19
2017-06-02T01:50:14.302Z,96.42
2017-06-02T01:51:15.726Z,96.70
2017-06-02T01:52:17.156Z,98.62
2017-06-02T01:53:18.584Z,98.62
2017-06-02T01:54:20.009Z,98.24
2017-06-02T01:55:21.430Z,98.82
2017-06-02T01:56:22.854Z,99.39
2017-06-02T01:57:24.284Z,99.10
2017-06-02T01:58:25.714Z,98.72
2017-06-02T01:59:27.140Z,97.76
2017-06-02T02:00:28.566Z,97.76
2017-06-02T02:01:29.995Z,97.56
2017-06-02T02:02:31.418Z,97.47
2017-06-02T02:03:32.844Z,97.95
2017-06-02T02:04:34.265Z,97.56
2017-06-02T02:05:35.693Z,97.95
2017-06-02T02:06:37.115Z,97.76
2017-06-02T02:07:38.551Z,97.14
2017-06-02T02:08:39.977Z,96.42
2017-06-02T02:09:41.403Z,96.56
2017-06-02T02:10:42.825Z,96.56
2017-06-02T02:11:44.244Z,96.75
2017-06-02T02:12:45.666Z,95.60
2017-06-02T02:13:47.093Z,95.89
2017-06-02T02:14:48.518Z,95.89
2017-06-02T02:15:49.947Z,96.08
2017-06-02T02:16:51.377Z,96.08
2017-06-02T02:17:52.808Z,96.70
2017-06-02T02:18:54.228Z,96.42
2017-06-02T02:19:55.654Z,97.19
2017-06-02T02:20:57.082Z,97.76
2017-06-02T02:21:58.506Z,97.38
2017-06-02T02:22:59.933Z,96.56
2017-06-02T02:24:01.367Z,96.85
2017-06-02T02:25:02.795Z,96.75
2017-06-02T02:26:04.218Z,96.47
2017-06-02T02:27:05.643Z,96.56
2017-06-02T02:28:07.066Z,96.56
2017-06-02T02:29:08.494Z,96.56
2017-06-02T02:30:09.918Z,96.37
2017-06-02T02:31:11.343Z,96.56
2017-06-02T02:32:12.762Z,97.61
2017-06-02T02:33:14.189Z,96.56
2017-06-02T02:34:15.614Z,96.47
2017-06-02T02:35:17.060Z,96.94
2017-06-02T02:36:18.482Z,96.27
2017-06-02T02:37:20.507Z,96.47
2017-06-02T02:38:21.933Z,95.50
2017-06-02T02:39:23.354Z,95.89
2017-06-02T02:40:24.774Z,96.56
2017-06-02T02:41:26.200Z,95.89
2017-06-02T02:42:27.619Z,96.56
2017-06-02T02:43:29.046Z,96.66
2017-06-02T02:44:30.475Z,95.98
2017-06-02T02:45:31.895Z,95.89
2017-06-02T02:46:33.324Z,95.98
2017-06-02T02:47:34.747Z,96.08
2017-06-02T02:48:36.169Z,96.66
2017-06-02T02:49:37.594Z,96.08
2017-06-02T02:50:39.009Z,96.75
2017-06-02T02:51:40.433Z,96.42
2017-06-02T02:52:41.855Z,96.80
2017-06-02T02:53:45.442Z,97.28
2017-06-02T02:54:46.863Z,97.86
2017-06-02T02:55:48.290Z,97.86
2017-06-02T02:56:49.712Z,97.95
2017-06-02T02:57:51.137Z,97.19
2017-06-02T02:58:52.562Z,96.51
2017-06-02T02:59:53.985Z,96.89
2017-06-02T03:00:55.416Z,96.47
2017-06-02T03:01:56.840Z,96.56
2017-06-02T03:02:58.263Z,96.37
2017-06-02T03:03:59.691Z,96.75
2017-06-02T03:05:01.112Z,96.51
2017-06-02T03:06:02.545Z,97.38
2017-06-02T03:07:03.993Z,96.70
2017-06-02T03:08:05.423Z,97.76
2017-06-02T03:09:06.857Z,97.47
2017-06-02T03:10:08.285Z,97.66
2017-06-02T03:11:09.708Z,97.19
2017-06-02T03:12:11.133Z,97.56
2017-06-02T03:13:12.552Z,97.76
2017-06-02T03:14:13.978Z,98.82
2017-06-02T03:15:15.398Z,98.53
2017-06-02T03:16:16.829Z,98.72
2017-06-02T03:17:18.251Z,98.82
2017-06-02T03:18:19.675Z,99.29
2017-06-02T03:19:21.105Z,99.73
2017-06-02T03:20:22.539Z,99.68
2017-06-02T03:21:23.962Z,99.49
2017-06-02T03:22:25.403Z,99.20
2017-06-02T03:23:26.832Z,98.91
2017-06-02T03:24:28.261Z,98.72
2017-06-02T03:25:29.683Z,99.58
2017-06-02T03:26:31.105Z,99.29
2017-06-02T03:27:32.528Z,99.68
2017-06-02T03:28:33.959Z,98.53
2017-06-02T03:29:35.485Z,98.91
2017-06-02T03:30:36.915Z,98.53
2017-06-02T03:31:38.345Z,97.86
2017-06-02T03:32:39.779Z,97.56
2017-06-02T03:33:41.209Z,97.47
2017-06-02T03:34:42.626Z,96.61
2017-06-02T03:35:44.053Z,97.66
2017-06-02T03:36:45.472Z,98.62
2017-06-02T03:37:48.700Z,98.24
2017-06-02T03:38:50.126Z,98.24
2017-06-02T03:39:51.552Z,98.62
2017-06-02T03:40:52.975Z,97.95
2017-06-02T03:41:54.402Z,96.70
2017-06-02T03:42:55.824Z,97.47
2017-06-02T03:43:57.247Z,98.10
2017-06-02T03:44:58.674Z,97.76
2017-06-02T03:46:00.097Z,97.47
2017-06-02T03:47:01.521Z,97.56
2017-06-02T03:48:02.957Z,97.66
2017-06-02T03:49:04.381Z,98.00
2017-06-02T03:50:05.807Z,97.61
2017-06-02T03:51:07.234Z,97.24
2017-06-02T03:52:08.658Z,97.24
2017-06-02T03:53:10.083Z,97.04
2017-06-02T03:54:11.525Z,96.56
2017-06-02T03:55:12.955Z,96.27
2017-06-02T03:56:14.380Z,96.27
2017-06-02T03:57:15.810Z,96.66
2017-06-02T03:58:17.237Z,96.94
2017-06-02T03:59:18.662Z,96.66
2017-06-02T04:00:20.097Z,97.61
2017-06-02T04:01:21.528Z,97.24
2017-06-02T04:02:22.961Z,97.71
2017-06-02T04:03:24.384Z,96.75
2017-06-02T04:04:25.818Z,97.61
2017-06-02T04:05:27.247Z,96.75
2017-06-02T04:06:28.674Z,96.75
2017-06-02T04:07:30.103Z,96.61
2017-06-02T04:08:31.538Z,96.80
2017-06-02T04:09:32.963Z,96.32
2017-06-02T04:10:34.395Z,96.51
2017-06-02T04:11:35.819Z,98.10
2017-06-02T04:12:37.250Z,97.61
2017-06-02T04:13:38.686Z,96.27
2017-06-02T04:14:40.104Z,96.37
2017-06-02T04:15:41.530Z,96.47
2017-06-02T04:16:42.959Z,97.61
2017-06-02T04:17:44.386Z,96.47
2017-06-02T04:18:45.814Z,97.24
2017-06-02T04:19:47.240Z,97.61
2017-06-02T04:20:48.666Z,97.33
2017-06-02T04:21:50.096Z,97.81
2017-06-02T04:22:51.530Z,96.61
2017-06-02T04:23:53.038Z,97.28
2017-06-02T04:24:54.463Z,97.66
2017-06-02T04:25:55.891Z,97.47
2017-06-02T04:26:57.334Z,97.61
2017-06-02T04:27:58.764Z,97.96
2017-06-02T04:29:00.189Z,97.81
2017-06-02T04:30:01.629Z,98.58
2017-06-02T04:31:03.145Z,98.38
2017-06-02T04:32:04.576Z,98.05
2017-06-02T04:33:06.001Z,97.86
2017-06-02T04:34:07.431Z,98.05
2017-06-02T04:35:08.921Z,98.19
2017-06-02T04:36:10.362Z,98.48
2017-06-02T04:37:11.779Z,98.48
2017-06-02T04:38:13.209Z,98.67
2017-06-02T04:39:14.635Z,98.24
2017-06-02T04:40:16.062Z,97.66
2017-06-02T04:41:17.495Z,96.61
2017-06-02T04:42:18.925Z,96.80
2017-06-02T04:43:20.357Z,97.47
2017-06-02T04:44:21.789Z,97.66
2017-06-02T04:45:23.282Z,97.76
2017-06-02T04:46:24.706Z,97.76
2017-06-02T04:47:26.135Z,97.86
2017-06-02T04:48:27.561Z,98.72
2017-06-02T04:49:28.990Z,98.05
2017-06-02T04:50:30.415Z,98.29
2017-06-02T04:51:31.840Z,98.77
2017-06-02T04:52:33.267Z,99.58
2017-06-02T04:53:34.696Z,98.91
2017-06-02T04:54:36.125Z,97.66
2017-06-02T04:55:37.547Z,98.72
2017-06-02T04:56:38.978Z,97.57
2017-06-02T04:57:40.402Z,98.72
2017-06-02T04:58:41.830Z,98.63
2017-06-02T04:59:43.263Z,97.81
2017-06-02T05:00:44.690Z,96.22
2017-06-02T05:01:46.116Z,96.89
2017-06-02T05:02:47.545Z,96.85
2017-06-02T05:03:48.976Z,96.22
2017-06-02T05:04:50.401Z,97.33
2017-06-02T05:05:51.830Z,96.66
2017-06-02T05:06:53.257Z,94.35
2017-06-02T05:07:54.681Z,94.78
2017-06-02T05:08:56.109Z,96.56
2017-06-02T05:09:57.534Z,96.08
2017-06-02T05:10:58.968Z,94.73
2017-06-02T05:12:00.396Z,93.53
2017-06-02T05:13:01.841Z,94.98
2017-06-02T05:14:03.255Z,95.45
2017-06-02T05:15:04.686Z,94.98
2017-06-02T05:16:06.109Z,95.55
2017-06-02T05:17:07.543Z,95.36
2017-06-02T05:18:08.963Z,94.59
2017-06-02T05:19:10.385Z,95.84
2017-06-02T05:20:11.816Z,95.45
2017-06-02T05:21:13.247Z,96.51
2017-06-02T05:22:14.682Z,96.51
2017-06-02T05:23:16.109Z,96.66
2017-06-02T05:24:17.540Z,96.27
2017-06-02T05:25:18.968Z,94.06
2017-06-02T05:26:20.394Z,94.64
2017-06-02T05:27:21.824Z,95.02
2017-06-02T05:28:23.256Z,94.98
2017-06-02T05:29:24.683Z,93.48
2017-06-02T05:30:26.114Z,94.25
2017-06-02T05:31:27.551Z,93.77
2017-06-02T05:32:28.979Z,94.92
2017-06-02T05:33:30.406Z,94.06
2017-06-02T05:34:31.834Z,94.35
2017-06-02T05:35:34.168Z,93.19
2017-06-02T05:36:35.598Z,93.10
2017-06-02T05:37:37.027Z,93.73
2017-06-02T05:38:38.455Z,93.73
2017-06-02T05:39:39.885Z,94.11
2017-06-02T05:40:41.321Z,93.34
2017-06-02T05:41:42.748Z,93.82
2017-06-02T05:42:44.175Z,93.73
2017-06-02T05:43:46.570Z,94.21
2017-06-02T05:44:48.000Z,94.78
2017-06-02T05:45:49.430Z,94.59
2017-06-02T05:46:50.864Z,95.26
2017-06-02T05:47:52.293Z,94.78
2017-06-02T05:48:53.723Z,95.26
2017-06-02T05:49:55.156Z,93.63
2017-06-02T05:50:56.577Z,95.26
2017-06-02T05:51:58.010Z,93.53
2017-06-02T05:52:59.438Z,93.73
2017-06-02T05:54:00.870Z,93.05
2017-06-02T05:55:02.296Z,91.90
2017-06-02T05:56:03.725Z,91.71
2017-06-02T05:57:05.157Z,92.09
2017-06-02T05:58:07.334Z,91.94
2017-06-02T05:59:08.751Z,92.13
2017-06-02T06:00:10.181Z,90.69
2017-06-02T06:01:11.608Z,91.99
2017-06-02T06:02:13.042Z,92.13
2017-06-02T06:03:14.478Z,93.10
2017-06-02T06:04:15.908Z,90.59
2017-06-02T06:05:17.330Z,90.89
2017-06-02T06:06:18.762Z,90.79
2017-06-02T06:07:20.206Z,90.69
2017-06-02T06:08:21.640Z,90.98
2017-06-02T06:09:23.062Z,90.50
2017-06-02T06:10:24.489Z,90.55
2017-06-02T06:11:25.912Z,89.29
2017-06-02T06:12:27.340Z,88.71
2017-06-02T06:13:28.800Z,88.71
2017-06-02T06:14:30.231Z,90.26
2017-06-02T06:15:31.667Z,90.89
2017-06-02T06:16:33.095Z,89.78
2017-06-02T06:17:34.520Z,90.06
2017-06-02T06:18:35.947Z,88.53
2017-06-02T06:19:37.373Z,88.91
2017-06-02T06:20:38.802Z,88.04
2017-06-02T06:21:40.235Z,88.24
2017-06-02T06:22:41.665Z,88.04
2017-06-02T06:23:43.099Z,87.18
2017-06-02T06:24:44.541Z,88.62
2017-06-02T06:25:45.970Z,87.12
2017-06-02T06:26:47.441Z,87.18
2017-06-02T06:27:48.834Z,85.87
2017-06-02T06:28:50.274Z,86.99
2017-06-02T06:29:51.700Z,86.79
2017-06-02T06:30:53.128Z,86.07
2017-06-02T06:31:54.562Z,85.68
2017-06-02T06:32:55.993Z,87.03
2017-06-02T06:33:57.423Z,84.43
2017-06-02T06:34:58.854Z,85.87
2017-06-02T06:36:00.280Z,87.32
2017-06-02T06:37:01.713Z,85.39
2017-06-02T06:38:03.152Z,86.74
2017-06-02T06:39:04.582Z,87.51
2017-06-02T06:40:06.009Z,87.41
2017-06-02T06:41:07.460Z,86.11
2017-06-02T06:42:08.902Z,83.70
2017-06-02T06:43:10.331Z,85.34
2017-06-02T06:44:11.757Z,84.09
2017-06-02T06:45:13.275Z,84.76
2017-06-02T06:46:14.703Z,84.47
2017-06-02T06:47:16.134Z,84.86
2017-06-02T06:48:17.617Z,85.05
2017-06-02T06:49:19.073Z,84.12
2017-06-02T06:50:20.504Z,85.05
2017-06-02T06:51:21.942Z,83.55
2017-06-02T06:52:23.403Z,81.72
2017-06-02T06:53:24.830Z,82.29
2017-06-02T06:54:26.253Z,83.55
2017-06-02T06:55:27.692Z,81.33
2017-06-02T06:56:29.119Z,81.43
2017-06-02T06:57:30.547Z,81.62
2017-06-02T06:58:31.974Z,81.04
2017-06-02T06:59:33.449Z,80.85
2017-06-02T07:00:34.883Z,81.43
2017-06-02T07:01:36.314Z,82.59
2017-06-02T07:02:37.741Z,82.10
2017-06-02T07:03:39.807Z,81.24
2017-06-02T07:04:41.238Z,78.92
2017-06-02T07:05:42.678Z,80.08
2017-06-02T07:06:44.112Z,80.27
2017-06-02T07:07:45.537Z,79.06
2017-06-02T07:08:46.967Z,80.85
2017-06-02T07:09:48.398Z,80.08
2017-06-02T07:10:49.827Z,80.12
2017-06-02T07:11:51.262Z,78.00
2017-06-02T07:12:52.690Z,78.38
2017-06-02T07:13:54.129Z,78.58
2017-06-02T07:14:55.560Z,78.48
2017-06-02T07:15:56.988Z,76.75
2017-06-02T07:16:58.419Z,77.61
2017-06-02T07:17:59.849Z,77.51
2017-06-02T07:19:01.276Z,77.51
2017-06-02T07:20:02.703Z,78.48
2017-06-02T07:21:04.139Z,77.13
2017-06-02T07:22:05.567Z,75.59
2017-06-02T07:23:06.993Z,75.34
2017-06-02T07:24:08.434Z,75.62
2017-06-02T07:25:09.871Z,76.01
2017-06-02T07:26:11.297Z,77.84
2017-06-02T07:27:12.727Z,77.55
2017-06-02T07:28:14.151Z,77.26
2017-06-02T07:29:15.591Z,76.78
2017-06-02T07:30:17.024Z,75.82
2017-06-02T07:31:18.453Z,76.78
2017-06-02T07:32:19.885Z,75.34
2017-06-02T07:33:21.316Z,75.53
2017-06-02T07:34:22.748Z,76.78
2017-06-02T07:35:24.179Z,74.95
2017-06-02T07:36:25.608Z,74.27
2017-06-02T07:37:29.711Z,74.95
2017-06-02T07:38:30.214Z,73.69
2017-06-02T07:39:31.645Z,73.50
2017-06-02T07:40:33.088Z,74.57
2017-06-02T07:41:34.518Z,74.99
2017-06-02T07:42:35.942Z,75.67
2017-06-02T07:43:37.374Z,73.25
2017-06-02T07:44:38.811Z,74.85
2017-06-02T07:45:40.240Z,77.55
2017-06-02T07:46:41.673Z,75.47
2017-06-02T07:47:43.104Z,74.99
2017-06-02T07:48:44.534Z,73.93
2017-06-02T07:49:45.971Z,75.37
2017-06-02T07:50:47.404Z,74.41
2017-06-02T07:51:48.832Z,73.73
2017-06-02T07:52:50.256Z,74.21
2017-06-02T07:53:51.685Z,71.80
2017-06-02T07:54:53.133Z,72.09
2017-06-02T07:55:57.123Z,72.09
2017-06-02T07:56:58.486Z,70.84
2017-06-02T07:57:59.924Z,71.12
2017-06-02T07:59:01.364Z,72.28
2017-06-02T08:00:02.798Z,72.32
2017-06-02T08:01:04.231Z,72.00
2017-06-02T08:02:05.665Z,71.61
2017-06-02T08:03:07.098Z,72.19
2017-06-02T08:04:08.529Z,72.28
2017-06-02T08:05:09.960Z,73.00
2017-06-02T08:06:11.390Z,74.21
2017-06-02T08:07:12.819Z,72.86
2017-06-02T08:08:14.246Z,71.64
2017-06-02T08:09:15.677Z,72.03
2017-06-02T08:10:17.109Z,71.94
2017-06-02T08:11:18.543Z,72.42
2017-06-02T08:12:19.980Z,71.94
2017-06-02T08:13:21.407Z,72.90
2017-06-02T08:14:22.842Z,72.03
2017-06-02T08:15:24.274Z,71.06
2017-06-02T08:16:25.706Z,72.52
2017-06-02T08:17:27.172Z,71.74
2017-06-02T08:18:28.598Z,72.36
2017-06-02T08:19:30.038Z,72.06
2017-06-02T08:20:31.499Z,71.30
2017-06-02T08:21:32.942Z,70.14
2017-06-02T08:22:34.372Z,70.23
2017-06-02T08:23:35.866Z,71.00
2017-06-02T08:24:37.243Z,72.26
2017-06-02T08:25:38.676Z,72.06
2017-06-02T08:26:40.107Z,71.20
2017-06-02T08:27:41.589Z,70.52
2017-06-02T08:28:43.016Z,70.81
2017-06-02T08:29:44.453Z,72.06
2017-06-02T08:30:45.879Z,69.94
2017-06-02T08:31:47.314Z,69.46
2017-06-02T08:32:48.837Z,68.88
2017-06-02T08:33:50.271Z,70.42
2017-06-02T08:34:51.704Z,70.04
2017-06-02T08:35:53.138Z,70.46
2017-06-02T08:36:54.567Z,68.72
2017-06-02T08:37:56.003Z,70.26
2017-06-02T08:38:57.429Z,70.56
2017-06-02T08:39:58.951Z,70.84
2017-06-02T08:41:00.965Z,71.46
2017-06-02T08:42:02.392Z,71.08
2017-06-02T08:43:03.826Z,70.17
2017-06-02T08:44:05.255Z,68.52
2017-06-02T08:45:06.689Z,67.21
2017-06-02T08:46:08.130Z,66.72
2017-06-02T08:47:09.565Z,69.04
2017-06-02T08:48:10.997Z,70.56
2017-06-02T08:49:12.426Z,68.82
2017-06-02T08:50:13.862Z,67.88
2017-06-02T08:51:15.301Z,68.56
2017-06-02T08:52:16.724Z,69.10
2017-06-02T08:53:18.153Z,68.95
2017-06-02T08:54:19.590Z,73.10
2017-06-02T08:55:21.013Z,71.20
2017-06-02T08:56:22.438Z,66.43
2017-06-02T08:57:24.602Z,65.98
2017-06-02T08:58:26.034Z,70.53
2017-06-02T08:59:27.465Z,69.56
2017-06-02T09:00:28.899Z,70.14
2017-06-02T09:01:30.330Z,69.95
2017-06-02T09:02:31.770Z,71.11
2017-06-02T09:03:33.210Z,70.92
2017-06-02T09:04:34.642Z,70.66
2017-06-02T09:05:36.088Z,69.56
2017-06-02T09:06:37.524Z,69.75
2017-06-02T09:07:38.956Z,68.98
2017-06-02T09:08:40.395Z,66.11
2017-06-02T09:09:41.830Z,66.20
2017-06-02T09:10:43.271Z,67.56
2017-06-02T09:11:44.710Z,68.53
2017-06-02T09:12:46.148Z,67.95
2017-06-02T09:13:47.588Z,67.05
2017-06-02T09:14:49.017Z,69.40
2017-06-02T09:15:50.455Z,64.62
2017-06-02T09:16:51.883Z,65.20
2017-06-02T09:17:53.320Z,66.27
2017-06-02T09:18:54.766Z,66.95
2017-06-02T09:19:56.211Z,66.20
2017-06-02T09:20:57.641Z,66.02
2017-06-02T09:21:59.082Z,64.69
2017-06-02T09:23:00.510Z,66.34
2017-06-02T09:24:01.945Z,64.95
2017-06-02T09:25:03.380Z,64.27
2017-06-02T09:26:04.855Z,64.07
2017-06-02T09:27:06.293Z,65.34
2017-06-02T09:28:07.726Z,65.72
2017-06-02T09:29:09.163Z,65.53
2017-06-02T09:30:10.603Z,66.20
2017-06-02T09:31:12.034Z,67.08
2017-06-02T09:32:13.553Z,66.50
2017-06-02T09:33:14.983Z,65.56
2017-06-02T09:34:16.415Z,68.85
2017-06-02T09:35:17.847Z,66.82
2017-06-02T09:36:19.289Z,66.63
2017-06-02T09:37:20.723Z,65.50
2017-06-02T09:38:22.151Z,62.10
2017-06-02T09:39:23.595Z,64.04
2017-06-02T09:40:25.028Z,63.37
2017-06-02T09:41:26.463Z,64.89
2017-06-02T09:42:27.897Z,65.17
2017-06-02T09:43:29.332Z,64.43
2017-06-02T09:44:30.773Z,64.62
2017-06-02T09:45:32.215Z,62.88
2017-06-02T09:46:33.646Z,64.98
2017-06-02T09:47:35.078Z,63.92
2017-06-02T09:48:36.516Z,64.30
2017-06-02T09:49:37.949Z,64.30
2017-06-02T09:50:39.381Z,63.72
2017-06-02T09:51:40.824Z,62.40
2017-06-02T09:52:42.265Z,61.46
2017-06-02T09:53:43.694Z,63.75
2017-06-02T09:54:45.128Z,64.56
2017-06-02T09:55:46.558Z,65.01
2017-06-02T09:56:47.997Z,64.14
2017-06-02T09:57:49.431Z,62.88
2017-06-02T09:58:51.878Z,63.37
2017-06-02T09:59:53.307Z,63.69
2017-06-02T10:00:54.750Z,64.34
2017-06-02T10:01:56.179Z,63.30
2017-06-02T10:02:57.630Z,61.72
2017-06-02T10:04:00.596Z,61.72
2017-06-02T10:05:02.030Z,62.59
2017-06-02T10:06:03.462Z,61.36
2017-06-02T10:07:04.896Z,63.49
2017-06-02T10:08:06.324Z,64.17
2017-06-02T10:09:07.763Z,64.17
2017-06-02T10:10:09.198Z,62.52
2017-06-02T10:11:10.633Z,62.04
2017-06-02T10:12:12.069Z,64.47
2017-06-02T10:13:13.501Z,64.11
2017-06-02T10:14:14.936Z,63.72
2017-06-02T10:15:16.370Z,62.85
2017-06-02T10:16:17.804Z,63.33
2017-06-02T10:17:19.235Z,63.33
2017-06-02T10:18:21.239Z,63.30
2017-06-02T10:19:22.679Z,63.40
2017-06-02T10:20:24.120Z,62.04
2017-06-02T10:21:25.568Z,60.71
2017-06-02T10:22:27.011Z,62.95
2017-06-02T10:23:28.450Z,63.13
2017-06-02T10:24:29.882Z,64.40
2017-06-02T10:25:31.320Z,61.49
2017-06-02T10:26:32.755Z,62.26
2017-06-02T10:27:34.187Z,61.19
2017-06-02T10:28:35.625Z,60.55
2017-06-02T10:29:37.077Z,58.31
2017-06-02T10:30:38.510Z,61.52
2017-06-02T10:31:39.943Z,61.42
2017-06-02T10:32:41.380Z,61.42
2017-06-02T10:33:42.825Z,60.16
2017-06-02T10:34:44.254Z,60.94
2017-06-02T10:35:45.693Z,60.94
2017-06-02T10:36:47.124Z,60.55
2017-06-02T10:37:48.560Z,61.25
2017-06-02T10:38:50.734Z,61.55
2017-06-02T10:39:52.175Z,61.16
2017-06-02T10:40:53.606Z,61.16
2017-06-02T10:41:55.038Z,61.84
2017-06-02T10:42:56.465Z,63.13
2017-06-02T10:43:57.904Z,63.23
2017-06-02T10:44:59.350Z,62.68
2017-06-02T10:46:00.783Z,61.12
2017-06-02T10:47:02.222Z,60.64
2017-06-02T10:48:03.660Z,59.38
2017-06-02T10:49:05.109Z,59.79
2017-06-02T10:50:06.542Z,60.38
2017-06-02T10:51:07.985Z,58.82
2017-06-02T10:52:09.425Z,59.50
2017-06-02T10:53:10.865Z,60.31
2017-06-02T10:54:12.300Z,60.41
2017-06-02T10:55:13.730Z,61.87
2017-06-02T10:56:15.168Z,60.21
2017-06-02T10:57:16.607Z,58.98
2017-06-02T10:58:18.035Z,58.01
2017-06-02T10:59:19.476Z,57.31
2017-06-02T11:00:20.906Z,55.88
2017-06-02T11:01:22.353Z,55.90
2017-06-02T11:02:23.800Z,56.41
2017-06-02T11:03:25.227Z,56.41
2017-06-02T11:04:26.674Z,59.43
2017-06-02T11:05:28.107Z,57.75
2017-06-02T11:06:29.543Z,57.78
2017-06-02T11:07:30.978Z,58.85
2017-06-02T11:08:32.410Z,60.60
2017-06-02T11:09:33.851Z,58.56
2017-06-02T11:10:35.291Z,57.71
2017-06-02T11:11:36.735Z,57.03
2017-06-02T11:12:38.174Z,56.86
2017-06-02T11:13:39.609Z,56.96
2017-06-02T11:14:41.048Z,56.86
2017-06-02T11:15:42.483Z,56.71
2017-06-02T11:16:43.915Z,56.90
2017-06-02T11:17:45.350Z,57.51
2017-06-02T11:18:46.788Z,55.64
2017-06-02T11:19:48.230Z,55.25
2017-06-02T11:20:49.666Z,54.57
2017-06-02T11:21:51.096Z,58.00
2017-06-02T11:22:52.533Z,57.15
2017-06-02T11:23:53.964Z,58.00
2017-06-02T11:24:55.406Z,55.44
2017-06-02T11:25:56.839Z,57.29
2017-06-02T11:27:01.069Z,56.22
2017-06-02T11:28:02.505Z,57.56
2017-06-02T11:29:03.944Z,57.56
2017-06-02T11:30:05.384Z,61.05
2017-06-02T11:31:06.907Z,61.44
2017-06-02T11:32:08.350Z,60.83
2017-06-02T11:33:09.786Z,61.51
2017-06-02T11:34:11.224Z,57.72
2017-06-02T11:35:12.666Z,61.22
2017-06-02T11:36:14.101Z,64.23
2017-06-02T11:37:15.572Z,62.10
2017-06-02T11:38:17.010Z,60.25
2017-06-02T11:39:18.444Z,60.64
2017-06-02T11:40:19.883Z,63.65
2017-06-02T11:41:21.322Z,60.47
2017-06-02T11:42:22.789Z,60.44
2017-06-02T11:43:27.881Z,60.00
2017-06-02T11:44:29.323Z,57.11
2017-06-02T11:45:30.758Z,58.08
2017-06-02T11:46:32.186Z,59.54
2017-06-02T11:47:33.630Z,61.25
2017-06-02T11:48:35.079Z,60.71
2017-06-02T11:49:36.523Z,61.58
2017-06-02T11:50:37.961Z,61.77
2017-06-02T11:51:39.670Z,61.02
2017-06-02T11:52:41.106Z,61.41
2017-06-02T11:53:42.538Z,61.35
2017-06-02T11:54:43.974Z,59.57
2017-06-02T11:55:45.751Z,58.43
2017-06-02T11:56:47.145Z,58.33
2017-06-02T11:57:48.855Z,58.85
2017-06-02T11:58:50.287Z,57.49
2017-06-02T11:59:51.735Z,59.17
2017-06-02T12:00:53.169Z,59.99
2017-06-02T12:01:54.609Z,58.56
2017-06-02T12:02:56.043Z,60.41
2017-06-02T12:03:57.481Z,60.89
2017-06-02T12:04:58.913Z,58.00
2017-06-02T12:06:00.464Z,55.35
2017-06-02T12:07:01.898Z,56.49
2017-06-02T12:08:03.338Z,58.23
2017-06-02T12:09:04.771Z,56.46
2017-06-02T12:10:06.483Z,58.11
2017-06-02T12:11:07.910Z,58.89
2017-06-02T12:12:09.352Z,59.41
2017-06-02T12:13:10.782Z,60.93
2017-06-02T12:14:12.223Z,61.74
2017-06-02T12:15:13.659Z,62.68
2017-06-02T12:16:15.095Z,60.74
2017-06-02T12:17:16.528Z,61.19
2017-06-02T12:18:17.966Z,60.31
2017-06-02T12:19:19.414Z,59.80
2017-06-02T12:20:20.847Z,59.54
2017-06-02T12:21:22.288Z,60.71
2017-06-02T12:22:23.745Z,59.41
2017-06-02T12:23:25.177Z,59.90
2017-06-02T12:24:27.263Z,58.64
2017-06-02T12:25:28.699Z,58.08
2017-06-02T12:26:30.135Z,58.59
2017-06-02T12:27:31.572Z,57.56
2017-06-02T12:28:33.010Z,60.05
2017-06-02T12:29:34.449Z,58.57
2017-06-02T12:30:35.879Z,59.25
2017-06-02T12:31:37.323Z,58.37
2017-06-02T12:32:38.788Z,60.38
2017-06-02T12:33:40.223Z,59.51
2017-06-02T12:34:41.658Z,60.38
2017-06-02T12:35:43.102Z,59.74
2017-06-02T12:36:44.533Z,61.38
2017-06-02T12:37:45.972Z,62.71
2017-06-02T12:38:47.409Z,61.25
2017-06-02T12:39:48.842Z,59.90
2017-06-02T12:40:50.278Z,61.25
2017-06-02T12:41:51.712Z,59.90
2017-06-02T12:42:53.155Z,60.80
2017-06-02T12:43:54.592Z,59.38
2017-06-02T12:44:56.750Z,59.08
2017-06-02T12:45:58.511Z,56.90
2017-06-02T19:08:49.237Z,99.99
2017-06-02T19:09:54.007Z,99.99
2017-06-02T19:10:55.440Z,93.08
2017-06-02T19:11:57.094Z,98.54
2017-06-02T19:12:59.055Z,99.99
2017-06-02T19:14:00.502Z,99.99
2017-06-02T19:15:02.377Z,99.99
2017-06-02T19:16:03.899Z,99.99
2017-06-02T19:17:05.528Z,99.99
2017-06-02T19:18:06.965Z,99.99
2017-06-02T19:19:08.411Z,99.99
2017-06-02T19:20:09.842Z,99.99
2017-06-02T19:21:11.272Z,99.99
2017-06-02T19:22:12.720Z,99.99
2017-06-02T19:23:14.155Z,99.99
2017-06-02T19:24:15.590Z,99.99
2017-06-02T19:25:17.021Z,99.99
2017-06-02T19:26:18.452Z,99.99
2017-06-02T19:27:19.877Z,99.99
2017-06-02T19:28:21.302Z,99.99
2017-06-02T19:29:22.734Z,99.99
2017-06-02T19:30:24.163Z,99.99
2017-06-02T19:31:25.595Z,99.99
2017-06-02T19:32:27.042Z,99.99
2017-06-02T19:33:28.481Z,99.99